Time;durP1;ratioP1;P1;durP2;ratioP2;P2;SDS_P1;SDS_P2;PMS_P1;PMS_P2;Temp;Humidity;BMP_temperature;BMP_pressure;BME280_temperature;BME280_humidity;BME280_pressure;Samples;Min_cycle;Max_cycle;Signal;HPM_P1;HPM_P2
2021/09/04 00:01:19;;;;;;;1999.90;999.90;;;;;;;;;;5034329;28;21014;-84
2021/09/04 00:03:47;;;;;;;1999.90;999.90;;;;;;;;;;5051765;28;20453;-82
2021/09/04 00:06:14;;;;;;;1999.90;999.90;;;;;;;;;;5051397;28;20844;-85
2021/09/04 00:08:42;;;;;;;1999.90;999.90;;;;;;;;;;5051345;28;20453;-83
2021/09/04 00:11:09;;;;;;;1999.90;999.90;;;;;;;;;;5051787;28;21007;-83
2021/09/04 00:13:38;;;;;;;1999.90;999.90;;;;;;;;;;5033471;28;20451;-83
2021/09/04 00:16:05;;;;;;;1999.90;999.90;;;;;;;;;;5033090;28;20468;-83
2021/09/04 00:18:34;;;;;;;1999.90;999.90;;;;;;;;;;5032771;28;20955;-84
2021/09/04 00:21:01;;;;;;;1999.90;999.90;;;;;;;;;;5032930;28;20458;-84
2021/09/04 00:23:28;;;;;;;1999.90;999.90;;;;;;;;;;5052572;28;20463;-83
2021/09/04 00:25:55;;;;;;;1999.90;999.90;;;;;;;;;;5053071;28;20444;-83
2021/09/04 00:28:22;;;;;;;1999.90;999.90;;;;;;;;;;5052458;28;20471;-82
2021/09/04 00:30:51;;;;;;;1999.90;999.90;;;;;;;;;;5052925;28;20490;-83
2021/09/04 00:33:18;;;;;;;1999.90;999.90;;;;;;;;;;5034286;28;20452;-83
2021/09/04 00:35:45;;;;;;;1999.90;999.90;;;;;;;;;;5032655;28;20456;-83
2021/09/04 00:38:12;;;;;;;1999.90;999.90;;;;;;;;;;5035693;28;20471;-84
2021/09/04 00:40:39;;;;;;;1999.90;999.90;;;;;;;;;;5035973;28;20437;-85
2021/09/04 00:43:06;;;;;;;1999.90;999.90;;;;;;;;;;5051968;28;20458;-84
2021/09/04 00:45:33;;;;;;;1999.90;999.90;;;;;;;;;;5055561;28;20456;-84
2021/09/04 00:48:03;;;;;;;1999.90;999.90;;;;;;;;;;5055298;28;20474;-85
2021/09/04 00:50:30;;;;;;;1999.90;999.90;;;;;;;;;;5055113;28;20516;-85
2021/09/04 00:52:58;;;;;;;1999.90;999.90;;;;;;;;;;5040758;28;20461;-83
2021/09/04 00:55:26;;;;;;;1999.90;999.90;;;;;;;;;;5035935;28;20535;-84
2021/09/04 00:57:53;;;;;;;1999.90;999.90;;;;;;;;;;5045427;28;20510;-83
2021/09/04 01:00:20;;;;;;;1999.90;999.90;;;;;;;;;;5041618;28;20447;-82
2021/09/04 01:02:47;;;;;;;1999.90;999.90;;;;;;;;;;5045195;28;20459;-83
2021/09/04 01:05:16;;;;;;;1999.90;999.90;;;;;;;;;;5051532;28;20462;-83
2021/09/04 01:07:44;;;;;;;1999.90;999.90;;;;;;;;;;5051419;28;20483;-83
2021/09/04 01:10:12;;;;;;;1999.90;999.90;;;;;;;;;;5051700;28;20498;-83
2021/09/04 01:12:40;;;;;;;1999.90;999.90;;;;;;;;;;5039336;28;20499;-82
2021/09/04 01:15:07;;;;;;;1999.90;999.90;;;;;;;;;;5031920;28;20450;-82
2021/09/04 01:17:35;;;;;;;1999.90;999.90;;;;;;;;;;5031068;28;20492;-81
2021/09/04 01:20:02;;;;;;;1999.90;999.90;;;;;;;;;;5031807;28;20475;-83
2021/09/04 01:22:32;;;;;;;1999.90;999.90;;;;;;;;;;5032736;28;20451;-83
2021/09/04 01:25:02;;;;;;;1999.90;999.90;;;;;;;;;;5031744;28;20526;-83
2021/09/04 01:27:32;;;;;;;1999.90;999.90;;;;;;;;;;5031088;28;20458;-83
2021/09/04 01:29:59;;;;;;;1999.90;999.90;;;;;;;;;;5031365;28;20448;-82
2021/09/04 01:32:26;;;;;;;1999.90;999.90;;;;;;;;;;5040963;28;20849;-82
2021/09/04 01:34:53;;;;;;;1999.90;999.90;;;;;;;;;;5051473;28;20470;-82
2021/09/04 01:37:20;;;;;;;1999.90;999.90;;;;;;;;;;5051510;28;20477;-82
2021/09/04 01:39:47;;;;;;;1999.90;999.90;;;;;;;;;;5042626;28;20941;-82
2021/09/04 01:42:14;;;;;;;1999.90;999.90;;;;;;;;;;5039601;28;20447;-83
2021/09/04 01:44:43;;;;;;;1999.90;999.90;;;;;;;;;;5051322;28;20978;-83
2021/09/04 01:47:10;;;;;;;1999.90;999.90;;;;;;;;;;5052603;28;20478;-82
2021/09/04 01:49:37;;;;;;;1999.90;999.90;;;;;;;;;;5052520;28;20459;-83
2021/09/04 01:52:05;;;;;;;1999.90;999.90;;;;;;;;;;5045852;28;20484;-83
2021/09/04 01:54:32;;;;;;;1999.90;999.90;;;;;;;;;;5057934;28;20476;-82
2021/09/04 01:57:01;;;;;;;1999.90;999.90;;;;;;;;;;5036144;28;20840;-82
2021/09/04 01:59:28;;;;;;;1999.90;999.90;;;;;;;;;;5036019;28;20517;-83
2021/09/04 02:01:57;;;;;;;1999.90;999.90;;;;;;;;;;5040415;28;20448;-83
2021/09/04 02:04:24;;;;;;;1999.90;999.90;;;;;;;;;;5055938;28;20460;-83
2021/09/04 02:06:51;;;;;;;1999.90;999.90;;;;;;;;;;5055749;28;20525;-83
2021/09/04 02:09:18;;;;;;;1999.90;999.90;;;;;;;;;;5055703;28;20456;-84
2021/09/04 02:11:45;;;;;;;1999.90;999.90;;;;;;;;;;5052140;28;20478;-83
2021/09/04 02:14:13;;;;;;;1999.90;999.90;;;;;;;;;;5035940;28;20452;-83
2021/09/04 02:16:41;;;;;;;1999.90;999.90;;;;;;;;;;5035677;28;20479;-84
2021/09/04 02:19:09;;;;;;;1999.90;999.90;;;;;;;;;;5038826;28;20450;-84
2021/09/04 02:21:36;;;;;;;1999.90;999.90;;;;;;;;;;5040719;28;20450;-85
2021/09/04 02:24:04;;;;;;;1999.90;999.90;;;;;;;;;;5053736;28;20452;-85
2021/09/04 02:26:31;;;;;;;1999.90;999.90;;;;;;;;;;5038546;28;20465;-85
2021/09/04 02:28:59;;;;;;;1999.90;999.90;;;;;;;;;;5039643;28;20451;-84
2021/09/04 02:31:26;;;;;;;1999.90;999.90;;;;;;;;;;5040125;28;20490;-85
2021/09/04 02:33:53;;;;;;;1999.90;999.90;;;;;;;;;;5020610;28;20456;-86
2021/09/04 02:36:22;;;;;;;1999.90;999.90;;;;;;;;;;5020379;28;20452;-85
2021/09/04 02:38:49;;;;;;;1999.90;999.90;;;;;;;;;;5020194;28;20504;-85
2021/09/04 02:41:17;;;;;;;1999.90;999.90;;;;;;;;;;5020361;28;20459;-85
2021/09/04 02:43:44;;;;;;;1999.90;999.90;;;;;;;;;;5058434;28;20464;-85
2021/09/04 02:46:11;;;;;;;1999.90;999.90;;;;;;;;;;5059231;28;20452;-85
2021/09/04 02:48:38;;;;;;;1999.90;999.90;;;;;;;;;;5059312;28;20464;-85
2021/09/04 02:51:05;;;;;;;1999.90;999.90;;;;;;;;;;5054836;28;20527;-85
2021/09/04 02:53:34;;;;;;;1999.90;999.90;;;;;;;;;;5055433;28;20456;-85
2021/09/04 02:56:05;;;;;;;1999.90;999.90;;;;;;;;;;5053677;28;20539;-85
2021/09/04 02:58:32;;;;;;;1999.90;999.90;;;;;;;;;;5038998;28;20479;-82
2021/09/04 03:01:02;;;;;;;1999.90;999.90;;;;;;;;;;5034340;28;20451;-82
2021/09/04 03:03:29;;;;;;;1999.90;999.90;;;;;;;;;;5050385;28;20531;-83
2021/09/04 03:05:56;;;;;;;1999.90;999.90;;;;;;;;;;5052871;28;20845;-83
2021/09/04 03:08:23;;;;;;;1999.90;999.90;;;;;;;;;;5054047;28;20474;-82
2021/09/04 03:10:51;;;;;;;1999.90;999.90;;;;;;;;;;5054009;28;20460;-84
2021/09/04 03:13:19;;;;;;;1999.90;999.90;;;;;;;;;;5039208;28;20486;-83
2021/09/04 03:15:46;;;;;;;1999.90;999.90;;;;;;;;;;5033928;28;20458;-82
2021/09/04 03:18:13;;;;;;;1999.90;999.90;;;;;;;;;;5033780;28;21009;-84
2021/09/04 03:20:41;;;;;;;1999.90;999.90;;;;;;;;;;5033930;28;20546;-83
2021/09/04 03:23:08;;;;;;;1999.90;999.90;;;;;;;;;;5046792;28;20826;-83
2021/09/04 03:25:35;;;;;;;1999.90;999.90;;;;;;;;;;5053986;28;20444;-84
2021/09/04 03:28:04;;;;;;;1999.90;999.90;;;;;;;;;;5053436;28;21018;-81
2021/09/04 03:30:31;;;;;;;1999.90;999.90;;;;;;;;;;5053497;28;21137;-84
2021/09/04 03:32:58;;;;;;;1999.90;999.90;;;;;;;;;;5042285;28;20483;-82
2021/09/04 03:35:25;;;;;;;1999.90;999.90;;;;;;;;;;5033617;28;20951;-82
2021/09/04 03:37:52;;;;;;;1999.90;999.90;;;;;;;;;;5033421;28;20471;-83
2021/09/04 03:40:19;;;;;;;1999.90;999.90;;;;;;;;;;5033867;28;20459;-83
2021/09/04 03:42:46;;;;;;;1999.90;999.90;;;;;;;;;;5042859;28;20628;-82
2021/09/04 03:45:15;;;;;;;1999.90;999.90;;;;;;;;;;5053547;28;20461;-81
2021/09/04 03:47:42;;;;;;;1999.90;999.90;;;;;;;;;;5051738;28;20444;-82
2021/09/04 03:50:09;;;;;;;1999.90;999.90;;;;;;;;;;5054014;28;20619;-81
2021/09/04 03:52:36;;;;;;;1999.90;999.90;;;;;;;;;;5044981;28;20491;-82
2021/09/04 03:55:04;;;;;;;1999.90;999.90;;;;;;;;;;5033728;28;20444;-83
2021/09/04 03:57:31;;;;;;;1999.90;999.90;;;;;;;;;;5034009;28;20485;-81
2021/09/04 03:59:58;;;;;;;1999.90;999.90;;;;;;;;;;5033167;28;20456;-82
2021/09/04 04:02:27;;;;;;;1999.90;999.90;;;;;;;;;;5039521;28;20462;-82
2021/09/04 04:04:54;;;;;;;1999.90;999.90;;;;;;;;;;5054058;28;20459;-83
2021/09/04 04:07:21;;;;;;;1999.90;999.90;;;;;;;;;;5053640;28;20490;-83
2021/09/04 04:09:48;;;;;;;1999.90;999.90;;;;;;;;;;5053332;28;20477;-83
2021/09/04 04:12:15;;;;;;;1999.90;999.90;;;;;;;;;;5048045;28;20486;-84
2021/09/04 04:14:42;;;;;;;1999.90;999.90;;;;;;;;;;5033007;28;20965;-83
2021/09/04 04:17:09;;;;;;;1999.90;999.90;;;;;;;;;;5032444;28;20494;-83
2021/09/04 04:19:38;;;;;;;1999.90;999.90;;;;;;;;;;5034978;28;20452;-83
2021/09/04 04:22:05;;;;;;;1999.90;999.90;;;;;;;;;;5038982;28;20447;-83
2021/09/04 04:24:32;;;;;;;1999.90;999.90;;;;;;;;;;5054365;28;20961;-83
2021/09/04 04:27:01;;;;;;;1999.90;999.90;;;;;;;;;;5054286;28;20472;-83
2021/09/04 04:29:28;;;;;;;1999.90;999.90;;;;;;;;;;5054069;28;20457;-83
2021/09/04 04:31:55;;;;;;;1999.90;999.90;;;;;;;;;;5051630;28;20492;-84
2021/09/04 04:34:22;;;;;;;1999.90;999.90;;;;;;;;;;5033604;28;20953;-84
2021/09/04 04:36:51;;;;;;;1999.90;999.90;;;;;;;;;;5033507;28;20473;-83
2021/09/04 04:39:18;;;;;;;1999.90;999.90;;;;;;;;;;5033201;28;20458;-82
2021/09/04 04:41:45;;;;;;;1999.90;999.90;;;;;;;;;;5033403;28;20845;-83
2021/09/04 04:44:12;;;;;;;1999.90;999.90;;;;;;;;;;5018624;28;20451;-85
2021/09/04 04:46:39;;;;;;;1999.90;999.90;;;;;;;;;;5039821;28;20476;-83
2021/09/04 04:49:07;;;;;;;1999.90;999.90;;;;;;;;;;5042929;28;20460;-85
2021/09/04 04:51:35;;;;;;;1999.90;999.90;;;;;;;;;;5044214;28;20538;-85
2021/09/04 04:54:04;;;;;;;1999.90;999.90;;;;;;;;;;5071895;28;20453;-85
2021/09/04 04:56:31;;;;;;;1999.90;999.90;;;;;;;;;;5057616;28;20993;-87
2021/09/04 04:58:58;;;;;;;1999.90;999.90;;;;;;;;;;5052091;28;20452;-85
2021/09/04 05:01:25;;;;;;;1999.90;999.90;;;;;;;;;;5051953;28;20503;-86
2021/09/04 05:03:53;;;;;;;1999.90;999.90;;;;;;;;;;5034927;28;20820;-86
2021/09/04 05:06:20;;;;;;;1999.90;999.90;;;;;;;;;;5031724;28;20952;-86
2021/09/04 05:08:47;;;;;;;1999.90;999.90;;;;;;;;;;5032665;28;20483;-85
2021/09/04 05:11:15;;;;;;;1999.90;999.90;;;;;;;;;;5032893;28;20451;-87
2021/09/04 05:13:42;;;;;;;1999.90;999.90;;;;;;;;;;5053321;28;20479;-87
2021/09/04 05:16:10;;;;;;;1999.90;999.90;;;;;;;;;;5070267;28;20560;-87
2021/09/04 05:18:37;;;;;;;1999.90;999.90;;;;;;;;;;5087825;22;20500;-85
2021/09/04 05:21:04;;;;;;;1999.90;999.90;;;;;;;;;;5102514;28;20970;-86
2021/09/04 05:23:31;;;;;;;1999.90;999.90;;;;;;;;;;5087087;28;20448;-85
2021/09/04 05:25:59;;;;;;;1999.90;999.90;;;;;;;;;;5079046;28;20950;-85
2021/09/04 05:28:27;;;;;;;1999.90;999.90;;;;;;;;;;5078115;28;20544;-85
2021/09/04 05:30:54;;;;;;;1999.90;999.90;;;;;;;;;;5081216;28;20454;-85
2021/09/04 05:33:21;;;;;;;1999.90;999.90;;;;;;;;;;5092542;28;20982;-84
2021/09/04 05:35:48;;;;;;;1999.90;999.90;;;;;;;;;;5099425;28;20454;-85
2021/09/04 05:38:16;;;;;;;1999.90;999.90;;;;;;;;;;5098867;28;20947;-84
2021/09/04 05:40:43;;;;;;;1999.90;999.90;;;;;;;;;;5098711;28;20538;-85
2021/09/04 05:43:10;;;;;;;1999.90;999.90;;;;;;;;;;5099535;28;20457;-84
2021/09/04 05:45:38;;;;;;;1999.90;999.90;;;;;;;;;;5098586;28;20453;-84
2021/09/04 05:48:06;;;;;;;1999.90;999.90;;;;;;;;;;5097901;28;20476;-85
2021/09/04 05:50:33;;;;;;;1999.90;999.90;;;;;;;;;;5098945;28;20461;-84
2021/09/04 05:53:00;;;;;;;1999.90;999.90;;;;;;;;;;5098646;28;20838;-84
2021/09/04 05:55:27;;;;;;;1999.90;999.90;;;;;;;;;;5098434;28;20450;-85
2021/09/04 05:57:54;;;;;;;1999.90;999.90;;;;;;;;;;5098728;28;20469;-83
2021/09/04 06:00:22;;;;;;;1999.90;999.90;;;;;;;;;;5097587;28;20451;-83
2021/09/04 06:02:50;;;;;;;1999.90;999.90;;;;;;;;;;5087019;28;21041;-83
2021/09/04 06:05:17;;;;;;;1999.90;999.90;;;;;;;;;;5097404;28;20448;-83
2021/09/04 06:07:44;;;;;;;1999.90;999.90;;;;;;;;;;5088496;28;20473;-84
2021/09/04 06:10:11;;;;;;;1999.90;999.90;;;;;;;;;;5097723;28;20451;-83
2021/09/04 06:12:39;;;;;;;1999.90;999.90;;;;;;;;;;5088024;28;20473;-84
2021/09/04 06:15:07;;;;;;;1999.90;999.90;;;;;;;;;;5095009;28;20444;-83
2021/09/04 06:17:34;;;;;;;1999.90;999.90;;;;;;;;;;5090024;28;20467;-83
2021/09/04 06:20:02;;;;;;;1999.90;999.90;;;;;;;;;;5100135;28;20537;-84
2021/09/04 06:22:30;;;;;;;1999.90;999.90;;;;;;;;;;5095937;28;20459;-84
2021/09/04 06:24:57;;;;;;;1999.90;999.90;;;;;;;;;;5100581;28;20515;-84
2021/09/04 06:27:24;;;;;;;1999.90;999.90;;;;;;;;;;5099257;28;20448;-84
2021/09/04 06:29:51;;;;;;;1999.90;999.90;;;;;;;;;;5099902;28;20450;-84
2021/09/04 06:32:18;;;;;;;1999.90;999.90;;;;;;;;;;5098857;28;20486;-84
2021/09/04 06:34:45;;;;;;;1999.90;999.90;;;;;;;;;;5099413;28;20451;-82
2021/09/04 06:37:13;;;;;;;1999.90;999.90;;;;;;;;;;5100991;28;20465;-85
2021/09/04 06:39:41;;;;;;;1999.90;999.90;;;;;;;;;;5101820;28;20850;-84
2021/09/04 06:42:08;;;;;;;1999.90;999.90;;;;;;;;;;5101138;28;20510;-85
2021/09/04 06:44:35;;;;;;;1999.90;999.90;;;;;;;;;;5102301;28;20454;-83
2021/09/04 06:47:02;;;;;;;1999.90;999.90;;;;;;;;;;5099413;28;20447;-83
2021/09/04 06:49:29;;;;;;;1999.90;999.90;;;;;;;;;;5104129;28;20541;-84
2021/09/04 06:51:56;;;;;;;1999.90;999.90;;;;;;;;;;5100753;28;20457;-84
2021/09/04 06:54:25;;;;;;;1999.90;999.90;;;;;;;;;;5101588;28;20482;-85
2021/09/04 06:56:52;;;;;;;1999.90;999.90;;;;;;;;;;5102187;28;21172;-83
2021/09/04 06:59:19;;;;;;;1999.90;999.90;;;;;;;;;;5100053;28;20469;-83
2021/09/04 07:01:47;;;;;;;1999.90;999.90;;;;;;;;;;5098620;28;20460;-82
2021/09/04 07:04:14;;;;;;;1999.90;999.90;;;;;;;;;;5099192;28;20463;-83
2021/09/04 07:06:42;;;;;;;1999.90;999.90;;;;;;;;;;5099346;28;20435;-84
2021/09/04 07:09:09;;;;;;;1999.90;999.90;;;;;;;;;;5099676;28;20512;-82
2021/09/04 07:11:38;;;;;;;1999.90;999.90;;;;;;;;;;5100950;28;20890;-85
2021/09/04 07:14:05;;;;;;;1999.90;999.90;;;;;;;;;;5099247;28;21001;-84
2021/09/04 07:16:32;;;;;;;1999.90;999.90;;;;;;;;;;5099458;28;20454;-82
2021/09/04 07:18:59;;;;;;;1999.90;999.90;;;;;;;;;;5098537;28;20483;-83
2021/09/04 07:21:27;;;;;;;1999.90;999.90;;;;;;;;;;5103581;28;20538;-84
2021/09/04 07:23:54;;;;;;;1999.90;999.90;;;;;;;;;;5100953;28;20535;-85
2021/09/04 07:26:21;;;;;;;1999.90;999.90;;;;;;;;;;5101815;28;20559;-83
2021/09/04 07:28:49;;;;;;;1999.90;999.90;;;;;;;;;;5101483;28;20463;-83
2021/09/04 07:31:16;;;;;;;1999.90;999.90;;;;;;;;;;5101394;28;20453;-84
2021/09/04 07:33:43;;;;;;;1999.90;999.90;;;;;;;;;;5100230;28;20649;-84
2021/09/04 07:36:11;;;;;;;1999.90;999.90;;;;;;;;;;5100354;28;20447;-82
2021/09/04 07:38:38;;;;;;;1999.90;999.90;;;;;;;;;;5101322;28;20469;-84
2021/09/04 07:41:05;;;;;;;1999.90;999.90;;;;;;;;;;5100673;28;20466;-85
2021/09/04 07:43:32;;;;;;;1999.90;999.90;;;;;;;;;;5101476;28;20500;-85
2021/09/04 07:46:00;;;;;;;1999.90;999.90;;;;;;;;;;5100084;28;20954;-85
2021/09/04 07:48:28;;;;;;;1999.90;999.90;;;;;;;;;;5103245;28;20470;-84
2021/09/04 07:50:55;;;;;;;1999.90;999.90;;;;;;;;;;5102201;28;20515;-85
2021/09/04 07:53:22;;;;;;;1999.90;999.90;;;;;;;;;;5100314;28;20477;-83
2021/09/04 07:55:50;;;;;;;1999.90;999.90;;;;;;;;;;5098449;28;20446;-84
2021/09/04 07:58:17;;;;;;;1999.90;999.90;;;;;;;;;;5098931;28;20468;-84
2021/09/04 08:00:44;;;;;;;1999.90;999.90;;;;;;;;;;5098840;28;20455;-83
2021/09/04 08:03:13;;;;;;;1999.90;999.90;;;;;;;;;;5099041;28;20446;-83
2021/09/04 08:05:40;;;;;;;1999.90;999.90;;;;;;;;;;5101567;28;20469;-83
2021/09/04 08:08:07;;;;;;;1999.90;999.90;;;;;;;;;;5097916;28;20552;-84
2021/09/04 08:10:34;;;;;;;1999.90;999.90;;;;;;;;;;5096063;28;20445;-84
2021/09/04 08:13:02;;;;;;;1999.90;999.90;;;;;;;;;;5097478;28;20473;-84
2021/09/04 08:15:29;;;;;;;1999.90;999.90;;;;;;;;;;5098666;28;20574;-84
2021/09/04 08:17:56;;;;;;;1999.90;999.90;;;;;;;;;;5092734;28;20926;-83
2021/09/04 08:20:24;;;;;;;1999.90;999.90;;;;;;;;;;5099241;28;20506;-83
2021/09/04 08:22:51;;;;;;;1999.90;999.90;;;;;;;;;;5099159;28;20440;-84
2021/09/04 08:25:18;;;;;;;1999.90;999.90;;;;;;;;;;5101056;28;20475;-84
2021/09/04 08:27:46;;;;;;;1999.90;999.90;;;;;;;;;;5100468;28;20539;-83
2021/09/04 08:30:13;;;;;;;1999.90;999.90;;;;;;;;;;5100901;28;20438;-84
2021/09/04 08:32:41;;;;;;;1999.90;999.90;;;;;;;;;;5100193;28;20454;-84
2021/09/04 08:35:08;;;;;;;1999.90;999.90;;;;;;;;;;5101064;28;20451;-83
2021/09/04 08:37:40;;;;;;;1999.90;999.90;;;;;;;;;;5096297;28;20950;-83
2021/09/04 08:40:08;;;;;;;1999.90;999.90;;;;;;;;;;5100101;28;20451;-84
2021/09/04 08:42:35;;;;;;;1999.90;999.90;;;;;;;;;;5097682;28;20445;-85
2021/09/04 08:45:03;;;;;;;1999.90;999.90;;;;;;;;;;5099950;28;20615;-84
2021/09/04 08:47:31;;;;;;;1999.90;999.90;;;;;;;;;;5098746;28;20442;-84
2021/09/04 08:50:01;;;;;;;1999.90;999.90;;;;;;;;;;5095497;28;20446;-84
2021/09/04 08:52:28;;;;;;;1999.90;999.90;;;;;;;;;;5097820;28;20452;-84
2021/09/04 08:54:58;;;;;;;1999.90;999.90;;;;;;;;;;5099280;28;20485;-84
2021/09/04 08:57:26;;;;;;;1999.90;999.90;;;;;;;;;;5098944;28;20978;-84
2021/09/04 09:00:02;;;;;;;1999.90;999.90;;;;;;;;;;5099986;28;20452;-84
2021/09/04 09:02:31;;;;;;;1999.90;999.90;;;;;;;;;;5094212;28;20454;-83
2021/09/04 09:05:03;;;;;;;1999.90;999.90;;;;;;;;;;5099200;28;20427;-83
2021/09/04 09:07:40;;;;;;;1999.90;999.90;;;;;;;;;;5095517;28;20470;-84
2021/09/04 09:10:13;;;;;;;1999.90;999.90;;;;;;;;;;5096994;28;20441;-84
2021/09/04 09:12:41;;;;;;;1999.90;999.90;;;;;;;;;;5098461;28;20445;-83
2021/09/04 09:15:08;;;;;;;1999.90;999.90;;;;;;;;;;5098484;28;20541;-83
2021/09/04 09:17:36;;;;;;;1999.90;999.90;;;;;;;;;;5098718;28;20826;-85
2021/09/04 09:20:04;;;;;;;1999.90;999.90;;;;;;;;;;5099654;28;20891;-83
2021/09/04 09:22:42;;;;;;;1999.90;999.90;;;;;;;;;;5099850;28;20529;-84
2021/09/04 09:25:14;;;;;;;1999.90;999.90;;;;;;;;;;5096475;28;20444;-84
2021/09/04 09:27:56;;;;;;;1999.90;999.90;;;;;;;;;;5099969;28;20470;-84
2021/09/04 09:30:29;;;;;;;1999.90;999.90;;;;;;;;;;5100927;28;20473;-85
2021/09/04 09:32:57;;;;;;;1999.90;999.90;;;;;;;;;;5101721;28;20435;-84
2021/09/04 09:35:30;;;;;;;1999.90;999.90;;;;;;;;;;5103996;28;20445;-84
2021/09/04 09:37:57;;;;;;;1999.90;999.90;;;;;;;;;;5098465;28;20489;-83
2021/09/04 09:40:26;;;;;;;1999.90;999.90;;;;;;;;;;5099982;28;20488;-84
2021/09/04 09:42:53;;;;;;;1999.90;999.90;;;;;;;;;;5099651;28;20507;-83
2021/09/04 09:45:20;;;;;;;1999.90;999.90;;;;;;;;;;5100306;28;20461;-82
2021/09/04 09:47:51;;;;;;;1999.90;999.90;;;;;;;;;;5098955;28;20464;-83
2021/09/04 09:50:18;;;;;;;1999.90;999.90;;;;;;;;;;5099370;28;20446;-84
2021/09/04 09:52:46;;;;;;;1999.90;999.90;;;;;;;;;;5098301;28;20453;-82
2021/09/04 09:55:13;;;;;;;1999.90;999.90;;;;;;;;;;5098132;28;20842;-83
2021/09/04 09:57:42;;;;;;;1999.90;999.90;;;;;;;;;;5097981;28;20489;-82
2021/09/04 10:00:10;;;;;;;1999.90;999.90;;;;;;;;;;5094641;28;20445;-83
2021/09/04 10:02:37;;;;;;;1999.90;999.90;;;;;;;;;;5097162;28;20513;-83
2021/09/04 10:05:05;;;;;;;1999.90;999.90;;;;;;;;;;5091703;28;20463;-82
2021/09/04 10:07:32;;;;;;;1999.90;999.90;;;;;;;;;;5095344;28;20476;-83
2021/09/04 10:09:59;;;;;;;1999.90;999.90;;;;;;;;;;5097073;28;20449;-82
2021/09/04 10:12:26;;;;;;;1999.90;999.90;;;;;;;;;;5096314;28;20448;-83
2021/09/04 10:14:55;;;;;;;1999.90;999.90;;;;;;;;;;5099204;28;20481;-82
2021/09/04 10:17:23;;;;;;;1999.90;999.90;;;;;;;;;;5100600;28;20463;-84
2021/09/04 10:19:50;;;;;;;1999.90;999.90;;;;;;;;;;5101553;28;20458;-82
2021/09/04 10:22:18;;;;;;;1999.90;999.90;;;;;;;;;;5100943;28;20452;-83
2021/09/04 10:24:47;;;;;;;1999.90;999.90;;;;;;;;;;5101124;28;20500;-84
2021/09/04 10:27:16;;;;;;;1999.90;999.90;;;;;;;;;;5100046;28;20506;-83
2021/09/04 10:29:45;;;;;;;1999.90;999.90;;;;;;;;;;5099178;28;20467;-83
2021/09/04 10:32:15;;;;;;;1999.90;999.90;;;;;;;;;;5097366;28;20886;-83
2021/09/04 10:34:45;;;;;;;1999.90;999.90;;;;;;;;;;5099979;28;20535;-83
2021/09/04 10:37:16;;;;;;;1999.90;999.90;;;;;;;;;;5091968;28;20511;-83
2021/09/04 10:40:03;;;;;;;1999.90;999.90;;;;;;;;;;5093072;28;20498;-83
2021/09/04 10:42:31;;;;;;;1999.90;999.90;;;;;;;;;;5096081;28;20504;-83
2021/09/04 10:45:00;;;;;;;1999.90;999.90;;;;;;;;;;5083423;28;20440;-83
2021/09/04 10:47:29;;;;;;;1999.90;999.90;;;;;;;;;;5093904;28;20446;-83
2021/09/04 10:50:12;;;;;;;1999.90;999.90;;;;;;;;;;5082768;28;20440;-84
2021/09/04 10:52:54;;;;;;;1999.90;999.90;;;;;;;;;;5096128;28;20962;-83
2021/09/04 10:55:21;;;;;;;1999.90;999.90;;;;;;;;;;5090908;28;20826;-83
2021/09/04 10:57:50;;;;;;;1999.90;999.90;;;;;;;;;;5098723;28;20466;-83
2021/09/04 11:00:21;;;;;;;1999.90;999.90;;;;;;;;;;5095550;28;20447;-83
2021/09/04 11:02:51;;;;;;;1999.90;999.90;;;;;;;;;;5095183;28;20498;-83
2021/09/04 11:05:28;;;;;;;1999.90;999.90;;;;;;;;;;5095279;28;20435;-83
2021/09/04 11:08:00;;;;;;;1999.90;999.90;;;;;;;;;;5097168;28;20488;-83
2021/09/04 11:10:28;;;;;;;1999.90;999.90;;;;;;;;;;5096305;28;20872;-83
2021/09/04 11:13:10;;;;;;;1999.90;999.90;;;;;;;;;;5094188;28;20446;-83
2021/09/04 11:15:37;;;;;;;1999.90;999.90;;;;;;;;;;5093983;28;20483;-84
2021/09/04 11:18:06;;;;;;;1999.90;999.90;;;;;;;;;;5120794;22;20477;-86
2021/09/04 11:20:33;;;;;;;1999.90;999.90;;;;;;;;;;5063368;28;20957;-81
2021/09/04 11:23:00;;;;;;;1999.90;999.90;;;;;;;;;;5068299;28;20443;-83
2021/09/04 11:25:27;;;;;;;1999.90;999.90;;;;;;;;;;5065659;28;20798;-83
2021/09/04 11:27:54;;;;;;;1999.90;999.90;;;;;;;;;;5065922;28;20446;-81
2021/09/04 11:30:21;;;;;;;1999.90;999.90;;;;;;;;;;5051622;28;20443;-81
2021/09/04 11:32:49;;;;;;;1999.90;999.90;;;;;;;;;;5052715;28;20452;-82
2021/09/04 11:35:18;;;;;;;1999.90;999.90;;;;;;;;;;5054075;28;20485;-83
2021/09/04 11:37:48;;;;;;;1999.90;999.90;;;;;;;;;;5055150;28;20966;-81
2021/09/04 11:40:16;;;;;;;1999.90;999.90;;;;;;;;;;5053290;28;20462;-82
2021/09/04 11:42:44;;;;;;;1999.90;999.90;;;;;;;;;;5053397;28;20468;-81
2021/09/04 11:45:12;;;;;;;1999.90;999.90;;;;;;;;;;5056566;28;20445;-83
2021/09/04 11:47:42;;;;;;;1999.90;999.90;;;;;;;;;;5054192;28;20531;-83
2021/09/04 11:50:10;;;;;;;1999.90;999.90;;;;;;;;;;5053453;28;20525;-84
2021/09/04 11:52:39;;;;;;;1999.90;999.90;;;;;;;;;;5073816;28;20438;-82
2021/09/04 11:55:10;;;;;;;1999.90;999.90;;;;;;;;;;5054716;28;20480;-85
2021/09/04 11:57:38;;;;;;;1999.90;999.90;;;;;;;;;;5054411;28;20446;-84
2021/09/04 12:00:07;;;;;;;1999.90;999.90;;;;;;;;;;5051735;28;20548;-84
2021/09/04 12:02:34;;;;;;;1999.90;999.90;;;;;;;;;;5055005;28;20467;-85
2021/09/04 12:05:04;;;;;;;1999.90;999.90;;;;;;;;;;5054184;28;20973;-84
2021/09/04 12:07:32;;;;;;;1999.90;999.90;;;;;;;;;;5054935;28;20499;-84
2021/09/04 12:10:02;;;;;;;1999.90;999.90;;;;;;;;;;5054007;28;20467;-84
2021/09/04 12:12:31;;;;;;;1999.90;999.90;;;;;;;;;;5054330;28;20543;-84
2021/09/04 12:14:59;;;;;;;1999.90;999.90;;;;;;;;;;5052192;28;20489;-83
2021/09/04 12:17:27;;;;;;;1999.90;999.90;;;;;;;;;;5052079;28;20456;-85
2021/09/04 12:19:54;;;;;;;1999.90;999.90;;;;;;;;;;5053477;28;20473;-84
2021/09/04 12:22:32;;;;;;;1999.90;999.90;;;;;;;;;;5053874;28;20446;-84
2021/09/04 12:25:01;;;;;;;1999.90;999.90;;;;;;;;;;5039769;28;20442;-84
2021/09/04 12:27:38;;;;;;;1999.90;999.90;;;;;;;;;;5051097;28;20458;-84
2021/09/04 12:30:06;;;;;;;1999.90;999.90;;;;;;;;;;5052913;28;20502;-84
2021/09/04 12:32:35;;;;;;;1999.90;999.90;;;;;;;;;;5054704;28;20445;-84
2021/09/04 12:35:02;;;;;;;1999.90;999.90;;;;;;;;;;5053291;28;20556;-84
2021/09/04 12:37:32;;;;;;;1999.90;999.90;;;;;;;;;;5053303;28;20453;-85
2021/09/04 12:40:08;;;;;;;1999.90;999.90;;;;;;;;;;5066213;28;20551;-81
2021/09/04 12:42:35;;;;;;;1999.90;999.90;;;;;;;;;;5058949;28;20454;-82
2021/09/04 12:45:07;;;;;;;1999.90;999.90;;;;;;;;;;5053692;28;20441;-81
2021/09/04 12:47:41;;;;;;;1999.90;999.90;;;;;;;;;;5053642;28;20442;-81
2021/09/04 12:50:08;;;;;;;1999.90;999.90;;;;;;;;;;5052958;28;20466;-83
2021/09/04 12:52:36;;;;;;;1999.90;999.90;;;;;;;;;;5052730;28;20450;-80
2021/09/04 12:55:04;;;;;;;1999.90;999.90;;;;;;;;;;5055353;28;20481;-81
2021/09/04 12:57:34;;;;;;;1999.90;999.90;;;;;;;;;;5054646;28;20456;-83
2021/09/04 13:00:03;;;;;;;1999.90;999.90;;;;;;;;;;5056097;28;20470;-81
2021/09/04 13:02:31;;;;;;;1999.90;999.90;;;;;;;;;;5055503;28;20509;-82
2021/09/04 13:04:59;;;;;;;1999.90;999.90;;;;;;;;;;5054137;28;20444;-83
2021/09/04 13:07:26;;;;;;;1999.90;999.90;;;;;;;;;;5053989;28;20976;-82
2021/09/04 13:09:53;;;;;;;1999.90;999.90;;;;;;;;;;5055598;28;20469;-81
2021/09/04 13:12:21;;;;;;;1999.90;999.90;;;;;;;;;;5055034;28;20469;-82
2021/09/04 13:14:49;;;;;;;1999.90;999.90;;;;;;;;;;5053598;28;20856;-81
2021/09/04 13:17:17;;;;;;;1999.90;999.90;;;;;;;;;;5053543;28;20467;-81
2021/09/04 13:19:44;;;;;;;1999.90;999.90;;;;;;;;;;5054586;28;20476;-81
2021/09/04 13:22:11;;;;;;;1999.90;999.90;;;;;;;;;;5053889;28;20466;-81
2021/09/04 13:24:38;;;;;;;1999.90;999.90;;;;;;;;;;5054204;28;20451;-83
2021/09/04 13:27:05;;;;;;;1999.90;999.90;;;;;;;;;;5053196;28;20513;-82
2021/09/04 13:29:34;;;;;;;1999.90;999.90;;;;;;;;;;5053001;28;20472;-82
2021/09/04 13:32:02;;;;;;;1999.90;999.90;;;;;;;;;;5053092;28;20456;-81
2021/09/04 13:34:29;;;;;;;1999.90;999.90;;;;;;;;;;5053270;28;20845;-81
2021/09/04 13:36:57;;;;;;;1999.90;999.90;;;;;;;;;;5053940;28;20444;-81
2021/09/04 13:39:25;;;;;;;1999.90;999.90;;;;;;;;;;5053519;28;20468;-82
2021/09/04 13:41:52;;;;;;;1999.90;999.90;;;;;;;;;;5058669;28;20452;-83
2021/09/04 13:44:19;;;;;;;1999.90;999.90;;;;;;;;;;5068350;28;20524;-82
2021/09/04 13:46:46;;;;;;;1999.90;999.90;;;;;;;;;;5063292;28;20511;-82